MSC Vigo — A8ZV8 — position and weather

sailwx.info

Track history (hours):
 
Tides Pressure Air temp Water temp Dewpoint Dewpoint depression Visibility Wind speed Wind direction Waves Ship positions

MSC Vigo

Last reported at 2016-Jun-26 18:00 UTC. Time now 2016-Jun-26 19:14 UTC.
Position N 00°00' W 030°12'.

Length 270 m; draft 12.1 m.

Type: Ship (hazmat cat A). MMSI: 636092276.

Wind from 130 at 12 knots

Waves 1.0 meters (3 feet), 4 second period

Barometer 1014.0 mb
Air temperature 26.7 ° C
Visibility: greater than 5.4 NM
Dewpoint 26.6 ° C
Water temperature 30.0 ° C

Date/timePositionNaut miles runAvg speedWind from/ knotsBaromVisibWave heightAir tempDewpointWater temp
2016-Jun-26 18:00N 00°00' W 030°12'9215.3 130 / 121014.0 5.4 1.026.726.630.0
2016-Jun-26 12:00N 01°18' W 029°24'76716.0 130 / 121016.010.8 0.527.022.130.0
2016-Jun-24 12:00N 12°24' W 023°00'33616.0 010 / 61017.010.8 25.519.726.0
2016-Jun-23 15:00N 17°18' W 020°12'68616.5 320 / 91015.0 5.4 0.522.519.622.0
2016-Jun-21 21:33N 27°17' W 014°11'1816.0
2016-Jun-21 20:23N 27°32' W 013°59'1416.7
2016-Jun-21 19:33N 27°43' W 013°50'1717.3
2016-Jun-21 18:33N 27°57' W 013°38'1817.6
2016-Jun-21 17:33N 28°11' W 013°27'1817.9
2016-Jun-21 16:33N 28°26' W 013°15'1817.9
2016-Jun-21 15:33N 28°40' W 013°03'1818.3
2016-Jun-21 14:33N 28°55' W 012°51'1817.9
2016-Jun-21 13:33N 29°10' W 012°39'1716.7
2016-Jun-21 12:33N 29°23' W 012°28'3416.9
2016-Jun-21 10:33N 29°51' W 012°05'2219.2
2016-Jun-21 09:26N 30°08' W 011°50'1516.9
2016-Jun-21 08:33N 30°21' W 011°40'7217.2
2016-Jun-21 04:22N 31°19' W 010°52'1417.3
2016-Jun-21 03:33N 31°30' W 010°42'2017.3
2016-Jun-21 02:26N 31°46' W 010°29'1516.9
2016-Jun-21 01:33N 31°58' W 010°18'1717.1
2016-Jun-21 00:33N 32°12' W 010°07'1717.0
2016-Jun-20 23:33N 32°26' W 009°55'1717.3
2016-Jun-20 22:33N 32°40' W 009°44'1717.2
2016-Jun-20 21:33N 32°53' W 009°30'1717.4
2016-Jun-20 20:33N 33°05' W 009°16'1817.9
2016-Jun-20 19:33N 33°18' W 009°01'1818.3
2016-Jun-20 18:33N 33°32' W 008°46'1818.0
2016-Jun-20 17:33N 33°45' W 008°32'1817.9
2016-Jun-20 16:33N 33°58' W 008°17'1818.0
2016-Jun-20 15:33N 34°12' W 008°02'1817.9
2016-Jun-20 14:33N 34°25' W 007°48'1817.8
2016-Jun-20 13:33N 34°38' W 007°33'1917.9
2016-Jun-20 12:31N 34°52' W 007°18'1018.7
2016-Jun-20 12:00N 34°54' W 007°06'1123.2 050 / 151020.0 5.4 1.523.021.616.0
2016-Jun-20 11:31N 35°05' W 007°03'2017.8
2016-Jun-20 10:22N 35°20' W 006°46'1517.9
2016-Jun-20 09:33N 35°30' W 006°34'5914.7
2016-Jun-20 05:33N 35°59' W 005°31'1111.3
2016-Jun-20 04:33N 36°02' W 005°17'2813.4
2016-Jun-20 02:29N 36°06' W 004°43'1715.9
2016-Jun-20 01:25N 36°09' W 004°22'5017.1
2016-Jun-19 22:30N 36°17' W 003°21'1717.5
2016-Jun-19 21:34N 36°19' W 003°01'1717.0
2016-Jun-19 20:34N 36°22' W 002°40'1717.1
2016-Jun-19 19:34N 36°24' W 002°19'1616.5
2016-Jun-19 18:34N 36°33' W 002°02'1717.4
2016-Jun-19 17:33N 36°44' W 001°45'1717.3
2016-Jun-19 16:33N 36°56' W 001°29'3817.7
2016-Jun-19 14:25N 37°20' W 000°53'1517.8
2016-Jun-19 13:33N 37°31' W 000°39'1616.7
2016-Jun-19 12:33N 37°44' W 000°26'1717.0
2016-Jun-19 11:33N 37°58' W 000°14'138 3.4
2016-Jun-17 18:33N 40°01' E 001°07'2222.4
2016-Jun-17 17:33N 40°19' E 001°23'2222.3
2016-Jun-17 16:33N 40°38' E 001°39'2222.3
2016-Jun-17 15:33N 40°57' E 001°55'2221.9
2016-Jun-17 14:34N 41°15' E 002°10'3 3.0
2016-Jun-17 13:31N 41°18' E 002°09'0 0.0
2016-Jun-17 10:31N 41°18' E 002°09'0 0.0
2016-Jun-17 01:19N 41°18' E 002°09'0 0.0
2016-Jun-17 00:31N 41°18' E 002°09'1 0.6
2016-Jun-16 23:33N 41°19' E 002°09'5 3.7
2016-Jun-16 22:16N 41°16' E 002°14'810.5
2016-Jun-16 21:33N 41°17' E 002°24'1716.9
2016-Jun-16 20:33N 41°25' E 002°44'2418.2
2016-Jun-16 19:15N 41°39' E 003°10'  
Track history (hours):
 
Tides Pressure Air temp Water temp Dewpoint Dewpoint depression Visibility Wind speed Wind direction Waves Ship positions

MSC Vigo

Last reported at 2016-Jun-26 18:00 UTC. Time now 2016-Jun-26 19:14 UTC.
Position N 00°00' W 030°12'.

Length 270 m; draft 12.1 m.

Type: Ship (hazmat cat A). MMSI: 636092276.

Wind from 130 at 12 knots

Waves 1.0 meters (3 feet), 4 second period

Barometer 1014.0 mb
Air temperature 26.7 ° C
Visibility: greater than 5.4 NM
Dewpoint 26.6 ° C
Water temperature 30.0 ° C

Date/timePositionNaut miles runAvg speedWind from/ knotsBaromVisibWave heightAir tempDewpointWater temp
2016-Jun-26 18:00N 00°00' W 030°12'9215.3 130 / 121014.0 5.4 1.026.726.630.0
2016-Jun-26 12:00N 01°18' W 029°24'76716.0 130 / 121016.010.8 0.527.022.130.0
2016-Jun-24 12:00N 12°24' W 023°00'33616.0 010 / 61017.010.8 25.519.726.0
2016-Jun-23 15:00N 17°18' W 020°12'68616.5 320 / 91015.0 5.4 0.522.519.622.0
2016-Jun-21 21:33N 27°17' W 014°11'1816.0
2016-Jun-21 20:23N 27°32' W 013°59'1416.7
2016-Jun-21 19:33N 27°43' W 013°50'1717.3
2016-Jun-21 18:33N 27°57' W 013°38'1817.6
2016-Jun-21 17:33N 28°11' W 013°27'1817.9
2016-Jun-21 16:33N 28°26' W 013°15'1817.9
2016-Jun-21 15:33N 28°40' W 013°03'1818.3
2016-Jun-21 14:33N 28°55' W 012°51'1817.9
2016-Jun-21 13:33N 29°10' W 012°39'1716.7
2016-Jun-21 12:33N 29°23' W 012°28'3416.9
2016-Jun-21 10:33N 29°51' W 012°05'2219.2
2016-Jun-21 09:26N 30°08' W 011°50'1516.9
2016-Jun-21 08:33N 30°21' W 011°40'7217.2
2016-Jun-21 04:22N 31°19' W 010°52'1417.3
2016-Jun-21 03:33N 31°30' W 010°42'2017.3
2016-Jun-21 02:26N 31°46' W 010°29'1516.9
2016-Jun-21 01:33N 31°58' W 010°18'1717.1
2016-Jun-21 00:33N 32°12' W 010°07'1717.0
2016-Jun-20 23:33N 32°26' W 009°55'1717.3
2016-Jun-20 22:33N 32°40' W 009°44'1717.2
2016-Jun-20 21:33N 32°53' W 009°30'1717.4
2016-Jun-20 20:33N 33°05' W 009°16'1817.9
2016-Jun-20 19:33N 33°18' W 009°01'1818.3
2016-Jun-20 18:33N 33°32' W 008°46'1818.0
2016-Jun-20 17:33N 33°45' W 008°32'1817.9
2016-Jun-20 16:33N 33°58' W 008°17'1818.0
2016-Jun-20 15:33N 34°12' W 008°02'1817.9
2016-Jun-20 14:33N 34°25' W 007°48'1817.8
2016-Jun-20 13:33N 34°38' W 007°33'1917.9
2016-Jun-20 12:31N 34°52' W 007°18'1018.7
2016-Jun-20 12:00N 34°54' W 007°06'1123.2 050 / 151020.0 5.4 1.523.021.616.0
2016-Jun-20 11:31N 35°05' W 007°03'2017.8
2016-Jun-20 10:22N 35°20' W 006°46'1517.9
2016-Jun-20 09:33N 35°30' W 006°34'5914.7
2016-Jun-20 05:33N 35°59' W 005°31'1111.3
2016-Jun-20 04:33N 36°02' W 005°17'2813.4
2016-Jun-20 02:29N 36°06' W 004°43'1715.9
2016-Jun-20 01:25N 36°09' W 004°22'5017.1
2016-Jun-19 22:30N 36°17' W 003°21'1717.5
2016-Jun-19 21:34N 36°19' W 003°01'1717.0
2016-Jun-19 20:34N 36°22' W 002°40'1717.1
2016-Jun-19 19:34N 36°24' W 002°19'1616.5
2016-Jun-19 18:34N 36°33' W 002°02'1717.4
2016-Jun-19 17:33N 36°44' W 001°45'1717.3
2016-Jun-19 16:33N 36°56' W 001°29'3817.7
2016-Jun-19 14:25N 37°20' W 000°53'1517.8
2016-Jun-19 13:33N 37°31' W 000°39'1616.7
2016-Jun-19 12:33N 37°44' W 000°26'1717.0
2016-Jun-19 11:33N 37°58' W 000°14'138 3.4
2016-Jun-17 18:33N 40°01' E 001°07'2222.4
2016-Jun-17 17:33N 40°19' E 001°23'2222.3
2016-Jun-17 16:33N 40°38' E 001°39'2222.3
2016-Jun-17 15:33N 40°57' E 001°55'2221.9
2016-Jun-17 14:34N 41°15' E 002°10'3 3.0
2016-Jun-17 13:31N 41°18' E 002°09'0 0.0
2016-Jun-17 10:31N 41°18' E 002°09'0 0.0
2016-Jun-17 01:19N 41°18' E 002°09'0 0.0
2016-Jun-17 00:31N 41°18' E 002°09'1 0.6
2016-Jun-16 23:33N 41°19' E 002°09'5 3.7
2016-Jun-16 22:16N 41°16' E 002°14'810.5
2016-Jun-16 21:33N 41°17' E 002°24'1716.9
2016-Jun-16 20:33N 41°25' E 002°44'2418.2
2016-Jun-16 19:15N 41°39' E 003°10'  

Dump ship's entire track history